Aspelt, Luxembourg
Current Conditions -  °F | °C
As of 2:20 PM on Friday 24 Oct 2014 (Local Time) from ELLX Reporting Station
Clear Clear  
Wind Chill: 52°   Ceiling: Unl
Heat Index: 52°   Visibility: 6mi
Dew Point: 43°   Wind: 5mph
Humidity: 71%   Direction: 190°S
Pressure: 30.12"   Gusts: NA
Location:  49.52°N, 6.22°E
Report Text: ELLX 241220Z 19004KT 120V230 CAVOK 11/06 Q1020 NOSIG
Loading
Personal Weather Stations






























Interactive Weather Map
Tropical Storm Tracking
New forecast layout! Learn more

10-Day Weather Forecast

Advertisements
Track Severe Weather on mobile